Rickmers Seoul — V7EI5 — position and weather

sailwx.info

Track history (hours):
 
Tides and Currents Weather Stations Pressure Air Temp Water Temp Dewpoint Dewpoint Depression Visibility Wind Speed Wind Dir Waves Ship Positions

Rickmers Seoul

Last reported at 2016-Sep-28 08:33 UTC. Time now 2016-Sep-28 10:21 UTC.
Position N 34°22' W 076°27'.

Length 192.9 m; beam 27.8 m; draft 11.2 m.

Type: Cargo ship. MMSI: 538001809.

Date/timePositionNaut miles runAvg speedWind from/ knotsBaromVisibWave heightAir tempDewpointWater temp
2016-Sep-28 08:33N 34°22' W 076°27'25714.2
2016-Sep-27 14:32N 38°24' W 074°43'6015.2
2016-Sep-27 10:33N 39°17' W 075°21'44 4.4
2016-Sep-27 00:33N 39°59' W 075°05'0 0.0
2016-Sep-26 20:33N 39°59' W 075°05'0 0.0
2016-Sep-26 19:33N 39°59' W 075°05'0 0.0
2016-Sep-26 15:22N 39°59' W 075°05'0 0.0
2016-Sep-26 13:28N 39°59' W 075°05'0 0.0
2016-Sep-26 11:31N 39°59' W 075°05'0 0.0
2016-Sep-26 08:31N 39°59' W 075°05'0 0.0
2016-Sep-26 02:33N 39°59' W 075°05'0 0.0
2016-Sep-26 01:32N 39°59' W 075°05'0 0.0
2016-Sep-26 00:32N 39°59' W 075°05'3 0.9
2016-Sep-25 21:34N 39°58' W 075°08'5 1.3
2016-Sep-25 17:33N 39°53' W 075°12'0 0.0
2016-Sep-25 16:33N 39°53' W 075°12'0 0.0
2016-Sep-25 15:33N 39°53' W 075°12'0 0.0
2016-Sep-25 14:33N 39°53' W 075°12'0 0.0
2016-Sep-25 12:33N 39°53' W 075°12'0 0.0
2016-Sep-25 11:33N 39°53' W 075°12'0 0.0
2016-Sep-25 10:33N 39°53' W 075°12'0 0.0
2016-Sep-25 09:33N 39°53' W 075°12'0 0.0
2016-Sep-25 07:33N 39°53' W 075°12'0 0.0
2016-Sep-25 04:33N 39°53' W 075°12'0 0.0
2016-Sep-25 00:30N 39°53' W 075°12'0 0.0
2016-Sep-24 22:33N 39°53' W 075°12'0 0.0
2016-Sep-24 21:33N 39°53' W 075°12'0 0.0
2016-Sep-24 19:33N 39°53' W 075°12'0 0.0
2016-Sep-24 18:33N 39°53' W 075°12'0 0.0
2016-Sep-24 17:33N 39°53' W 075°12'0 0.0
2016-Sep-24 16:33N 39°53' W 075°12'0 0.0
2016-Sep-24 14:33N 39°53' W 075°12'0 0.0
2016-Sep-24 12:33N 39°53' W 075°12'0 0.0
2016-Sep-24 10:33N 39°53' W 075°12'0 0.0
2016-Sep-24 09:33N 39°53' W 075°12'0 0.0
2016-Sep-24 03:33N 39°53' W 075°12'0 0.0
2016-Sep-24 02:33N 39°53' W 075°12'0 0.0
2016-Sep-24 01:33N 39°53' W 075°12'0 0.0
2016-Sep-24 00:33N 39°53' W 075°12'0 0.0
2016-Sep-23 19:33N 39°53' W 075°12'8 3.8
2016-Sep-23 17:33N 39°51' W 075°21'1010.0
2016-Sep-23 16:33N 39°44' W 075°30'1111.2
2016-Sep-23 15:33N 39°33' W 075°32'2612.9
2016-Sep-23 13:32N 39°10' W 075°16'5212.9
2016-Sep-23 09:33N 38°27' W 074°40'11012.3
2016-Sep-23 00:33N 36°53' W 075°54'1513.0
2016-Sep-22 23:22N 36°60' W 076°11'10 3.5
2016-Sep-22 20:32N 36°52' W 076°19'0 0.0
2016-Sep-22 12:23N 36°52' W 076°19'0 0.0
2016-Sep-22 04:32N 36°52' W 076°19'0 0.0
2016-Sep-22 03:32N 36°52' W 076°19'0 0.0
2016-Sep-22 00:32N 36°52' W 076°19'0 0.0
2016-Sep-21 23:32N 36°52' W 076°19'0 0.0
2016-Sep-21 22:32N 36°52' W 076°19'0 0.0
2016-Sep-21 19:32N 36°52' W 076°19'0 0.0
2016-Sep-21 16:32N 36°52' W 076°19'0 0.0
2016-Sep-21 09:32N 36°52' W 076°19'0 0.0
2016-Sep-21 08:32N 36°52' W 076°19'0 0.0
2016-Sep-21 05:32N 36°52' W 076°19'0 0.0
2016-Sep-21 03:32N 36°52' W 076°19'0 0.0
2016-Sep-21 02:32N 36°52' W 076°19'0 0.0
2016-Sep-20 17:32N 36°52' W 076°19'0 0.0
2016-Sep-20 14:29N 36°52' W 076°19'0 0.0
2016-Sep-20 13:32N 36°52' W 076°19'0 0.0
2016-Sep-20 10:32N 36°52' W 076°19'0 0.0
2016-Sep-20 08:32N 36°52' W 076°19'0 0.0
2016-Sep-20 07:32N 36°52' W 076°19'0 0.0
2016-Sep-20 06:26N 36°52' W 076°19'0 0.0
2016-Sep-20 02:32N 36°52' W 076°19'0 0.0
2016-Sep-19 19:32N 36°52' W 076°19'0 0.0
2016-Sep-19 18:32N 36°52' W 076°19'0 0.0
2016-Sep-19 16:29N 36°52' W 076°19'0 0.0
2016-Sep-19 14:32N 36°52' W 076°19'0 0.0
2016-Sep-19 13:32N 36°52' W 076°19'0 0.0
2016-Sep-19 12:32N 36°52' W 076°19'0 0.0
2016-Sep-19 11:32N 36°52' W 076°19'4 1.8
2016-Sep-19 09:33N 36°55' W 076°20'2010.2
2016-Sep-19 07:33N 36°55' W 075°55'  
Track history (hours):
 
Tides and Currents Weather Stations Pressure Air Temp Water Temp Dewpoint Dewpoint Depression Visibility Wind Speed Wind Dir Waves Ship Positions

Rickmers Seoul

Last reported at 2016-Sep-28 08:33 UTC. Time now 2016-Sep-28 10:21 UTC.
Position N 34°22' W 076°27'.

Length 192.9 m; beam 27.8 m; draft 11.2 m.

Type: Cargo ship. MMSI: 538001809.

Date/timePositionNaut miles runAvg speedWind from/ knotsBaromVisibWave heightAir tempDewpointWater temp
2016-Sep-28 08:33N 34°22' W 076°27'25714.2
2016-Sep-27 14:32N 38°24' W 074°43'6015.2
2016-Sep-27 10:33N 39°17' W 075°21'44 4.4
2016-Sep-27 00:33N 39°59' W 075°05'0 0.0
2016-Sep-26 20:33N 39°59' W 075°05'0 0.0
2016-Sep-26 19:33N 39°59' W 075°05'0 0.0
2016-Sep-26 15:22N 39°59' W 075°05'0 0.0
2016-Sep-26 13:28N 39°59' W 075°05'0 0.0
2016-Sep-26 11:31N 39°59' W 075°05'0 0.0
2016-Sep-26 08:31N 39°59' W 075°05'0 0.0
2016-Sep-26 02:33N 39°59' W 075°05'0 0.0
2016-Sep-26 01:32N 39°59' W 075°05'0 0.0
2016-Sep-26 00:32N 39°59' W 075°05'3 0.9
2016-Sep-25 21:34N 39°58' W 075°08'5 1.3
2016-Sep-25 17:33N 39°53' W 075°12'0 0.0
2016-Sep-25 16:33N 39°53' W 075°12'0 0.0
2016-Sep-25 15:33N 39°53' W 075°12'0 0.0
2016-Sep-25 14:33N 39°53' W 075°12'0 0.0
2016-Sep-25 12:33N 39°53' W 075°12'0 0.0
2016-Sep-25 11:33N 39°53' W 075°12'0 0.0
2016-Sep-25 10:33N 39°53' W 075°12'0 0.0
2016-Sep-25 09:33N 39°53' W 075°12'0 0.0
2016-Sep-25 07:33N 39°53' W 075°12'0 0.0
2016-Sep-25 04:33N 39°53' W 075°12'0 0.0
2016-Sep-25 00:30N 39°53' W 075°12'0 0.0
2016-Sep-24 22:33N 39°53' W 075°12'0 0.0
2016-Sep-24 21:33N 39°53' W 075°12'0 0.0
2016-Sep-24 19:33N 39°53' W 075°12'0 0.0
2016-Sep-24 18:33N 39°53' W 075°12'0 0.0
2016-Sep-24 17:33N 39°53' W 075°12'0 0.0
2016-Sep-24 16:33N 39°53' W 075°12'0 0.0
2016-Sep-24 14:33N 39°53' W 075°12'0 0.0
2016-Sep-24 12:33N 39°53' W 075°12'0 0.0
2016-Sep-24 10:33N 39°53' W 075°12'0 0.0
2016-Sep-24 09:33N 39°53' W 075°12'0 0.0
2016-Sep-24 03:33N 39°53' W 075°12'0 0.0
2016-Sep-24 02:33N 39°53' W 075°12'0 0.0
2016-Sep-24 01:33N 39°53' W 075°12'0 0.0
2016-Sep-24 00:33N 39°53' W 075°12'0 0.0
2016-Sep-23 19:33N 39°53' W 075°12'8 3.8
2016-Sep-23 17:33N 39°51' W 075°21'1010.0
2016-Sep-23 16:33N 39°44' W 075°30'1111.2
2016-Sep-23 15:33N 39°33' W 075°32'2612.9
2016-Sep-23 13:32N 39°10' W 075°16'5212.9
2016-Sep-23 09:33N 38°27' W 074°40'11012.3
2016-Sep-23 00:33N 36°53' W 075°54'1513.0
2016-Sep-22 23:22N 36°60' W 076°11'10 3.5
2016-Sep-22 20:32N 36°52' W 076°19'0 0.0
2016-Sep-22 12:23N 36°52' W 076°19'0 0.0
2016-Sep-22 04:32N 36°52' W 076°19'0 0.0
2016-Sep-22 03:32N 36°52' W 076°19'0 0.0
2016-Sep-22 00:32N 36°52' W 076°19'0 0.0
2016-Sep-21 23:32N 36°52' W 076°19'0 0.0
2016-Sep-21 22:32N 36°52' W 076°19'0 0.0
2016-Sep-21 19:32N 36°52' W 076°19'0 0.0
2016-Sep-21 16:32N 36°52' W 076°19'0 0.0
2016-Sep-21 09:32N 36°52' W 076°19'0 0.0
2016-Sep-21 08:32N 36°52' W 076°19'0 0.0
2016-Sep-21 05:32N 36°52' W 076°19'0 0.0
2016-Sep-21 03:32N 36°52' W 076°19'0 0.0
2016-Sep-21 02:32N 36°52' W 076°19'0 0.0
2016-Sep-20 17:32N 36°52' W 076°19'0 0.0
2016-Sep-20 14:29N 36°52' W 076°19'0 0.0
2016-Sep-20 13:32N 36°52' W 076°19'0 0.0
2016-Sep-20 10:32N 36°52' W 076°19'0 0.0
2016-Sep-20 08:32N 36°52' W 076°19'0 0.0
2016-Sep-20 07:32N 36°52' W 076°19'0 0.0
2016-Sep-20 06:26N 36°52' W 076°19'0 0.0
2016-Sep-20 02:32N 36°52' W 076°19'0 0.0
2016-Sep-19 19:32N 36°52' W 076°19'0 0.0
2016-Sep-19 18:32N 36°52' W 076°19'0 0.0
2016-Sep-19 16:29N 36°52' W 076°19'0 0.0
2016-Sep-19 14:32N 36°52' W 076°19'0 0.0
2016-Sep-19 13:32N 36°52' W 076°19'0 0.0
2016-Sep-19 12:32N 36°52' W 076°19'0 0.0
2016-Sep-19 11:32N 36°52' W 076°19'4 1.8
2016-Sep-19 09:33N 36°55' W 076°20'2010.2
2016-Sep-19 07:33N 36°55' W 075°55'  

Dump ship's entire track history